sensor_id;sensor_type;location;lat;lon;timestamp;pressure;altitude;pressure_sealevel;temperature;humidity
40285;BME280;25997;50.214;19.354;2023-11-19T00:02:04;98267.03;;;2.96;54.98
40285;BME280;25997;50.214;19.354;2023-11-19T00:05:09;98265.69;;;3.03;55.15
40285;BME280;25997;50.214;19.354;2023-11-19T00:08:12;98258.44;;;3.12;55.19
40285;BME280;25997;50.214;19.354;2023-11-19T00:11:14;98260.31;;;3.14;54.95
40285;BME280;25997;50.214;19.354;2023-11-19T00:14:17;98265.69;;;3.03;54.64
40285;BME280;25997;50.214;19.354;2023-11-19T00:17:21;98267.66;;;2.92;54.59
40285;BME280;25997;50.214;19.354;2023-11-19T00:20:24;98257.09;;;2.89;54.67
40285;BME280;25997;50.214;19.354;2023-11-19T00:23:26;98256.66;;;2.96;54.76
40285;BME280;25997;50.214;19.354;2023-11-19T00:26:29;98250.50;;;3.09;54.87
40285;BME280;25997;50.214;19.354;2023-11-19T00:29:32;98239.84;;;3.19;54.86
40285;BME280;25997;50.214;19.354;2023-11-19T00:32:36;98229.09;;;3.27;54.74
40285;BME280;25997;50.214;19.354;2023-11-19T00:35:40;98230.97;;;3.30;54.75
40285;BME280;25997;50.214;19.354;2023-11-19T00:38:42;98232.59;;;3.28;54.81
40285;BME280;25997;50.214;19.354;2023-11-19T00:41:45;98235.81;;;3.24;54.67
40285;BME280;25997;50.214;19.354;2023-11-19T00:44:48;98229.28;;;3.16;54.98
40285;BME280;25997;50.214;19.354;2023-11-19T00:47:52;98225.16;;;3.19;54.94
40285;BME280;25997;50.214;19.354;2023-11-19T00:50:54;98216.56;;;3.20;55.10
40285;BME280;25997;50.214;19.354;2023-11-19T00:53:57;98220.41;;;3.27;55.35
40285;BME280;25997;50.214;19.354;2023-11-19T00:57:00;98216.44;;;3.33;55.16
40285;BME280;25997;50.214;19.354;2023-11-19T01:00:04;98215.91;;;3.39;55.08
40285;BME280;25997;50.214;19.354;2023-11-19T01:03:16;98210.91;;;3.42;55.03
40285;BME280;25997;50.214;19.354;2023-11-19T01:06:27;98205.53;;;3.39;54.95
40285;BME280;25997;50.214;19.354;2023-11-19T01:09:30;98218.84;;;3.45;55.02
40285;BME280;25997;50.214;19.354;2023-11-19T01:12:33;98215.72;;;3.51;54.90
40285;BME280;25997;50.214;19.354;2023-11-19T01:15:36;98215.06;;;3.55;54.68
40285;BME280;25997;50.214;19.354;2023-11-19T01:18:40;98209.06;;;3.56;54.59
40285;BME280;25997;50.214;19.354;2023-11-19T01:21:43;98211.19;;;3.63;54.65
40285;BME280;25997;50.214;19.354;2023-11-19T01:24:56;98202.53;;;3.62;53.96
40285;BME280;25997;50.214;19.354;2023-11-19T01:27:59;98203.16;;;3.58;54.21
40285;BME280;25997;50.214;19.354;2023-11-19T01:31:04;98196.59;;;3.65;54.60
40285;BME280;25997;50.214;19.354;2023-11-19T01:34:08;98189.97;;;3.70;54.34
40285;BME280;25997;50.214;19.354;2023-11-19T01:37:11;98184.94;;;3.73;54.21
40285;BME280;25997;50.214;19.354;2023-11-19T01:40:15;98178.66;;;3.69;54.14
40285;BME280;25997;50.214;19.354;2023-11-19T01:43:34;98177.56;;;3.64;53.83
40285;BME280;25997;50.214;19.354;2023-11-19T01:46:37;98169.66;;;3.63;54.32
40285;BME280;25997;50.214;19.354;2023-11-19T01:49:42;98182.81;;;3.66;54.29
40285;BME280;25997;50.214;19.354;2023-11-19T01:52:44;98171.84;;;3.71;54.20
40285;BME280;25997;50.214;19.354;2023-11-19T01:55:47;98158.56;;;3.65;53.96
40285;BME280;25997;50.214;19.354;2023-11-19T01:58:50;98152.97;;;3.58;53.97
40285;BME280;25997;50.214;19.354;2023-11-19T02:01:53;98156.16;;;3.54;53.94
40285;BME280;25997;50.214;19.354;2023-11-19T02:04:57;98154.56;;;3.56;54.46
40285;BME280;25997;50.214;19.354;2023-11-19T02:08:00;98138.25;;;3.58;54.29
40285;BME280;25997;50.214;19.354;2023-11-19T02:11:04;98133.41;;;3.64;54.09
40285;BME280;25997;50.214;19.354;2023-11-19T02:14:08;98119.53;;;3.64;53.72
40285;BME280;25997;50.214;19.354;2023-11-19T02:17:25;98099.50;;;3.61;53.82
40285;BME280;25997;50.214;19.354;2023-11-19T02:20:30;98091.88;;;3.64;54.02
40285;BME280;25997;50.214;19.354;2023-11-19T02:23:33;98083.13;;;3.62;54.08
40285;BME280;25997;50.214;19.354;2023-11-19T02:26:39;98093.25;;;3.58;54.07
40285;BME280;25997;50.214;19.354;2023-11-19T02:29:47;98082.69;;;3.55;53.94
40285;BME280;25997;50.214;19.354;2023-11-19T02:32:50;98068.91;;;3.56;54.40
40285;BME280;25997;50.214;19.354;2023-11-19T02:35:53;98054.22;;;3.56;54.22
40285;BME280;25997;50.214;19.354;2023-11-19T02:38:56;98053.84;;;3.49;54.65
40285;BME280;25997;50.214;19.354;2023-11-19T02:41:59;98050.66;;;3.38;54.51
40285;BME280;25997;50.214;19.354;2023-11-19T02:45:03;98035.25;;;3.41;54.79
40285;BME280;25997;50.214;19.354;2023-11-19T02:48:07;98026.75;;;3.43;54.75
40285;BME280;25997;50.214;19.354;2023-11-19T02:51:10;98022.59;;;3.47;54.62
40285;BME280;25997;50.214;19.354;2023-11-19T02:54:13;98013.69;;;3.42;54.74
40285;BME280;25997;50.214;19.354;2023-11-19T02:57:16;98005.16;;;3.44;54.58
40285;BME280;25997;50.214;19.354;2023-11-19T03:00:22;97993.66;;;3.39;54.71
40285;BME280;25997;50.214;19.354;2023-11-19T03:03:28;98007.28;;;3.35;55.06
40285;BME280;25997;50.214;19.354;2023-11-19T03:06:40;97992.59;;;3.36;54.94
40285;BME280;25997;50.214;19.354;2023-11-19T03:09:42;97989.19;;;3.37;54.94
40285;BME280;25997;50.214;19.354;2023-11-19T03:12:45;97987.41;;;3.36;55.15
40285;BME280;25997;50.214;19.354;2023-11-19T03:15:49;97983.84;;;3.34;55.17
40285;BME280;25997;50.214;19.354;2023-11-19T03:18:52;97989.84;;;3.33;55.08
40285;BME280;25997;50.214;19.354;2023-11-19T03:21:55;97991.38;;;3.29;54.77
40285;BME280;25997;50.214;19.354;2023-11-19T03:24:57;97978.25;;;3.26;55.07
40285;BME280;25997;50.214;19.354;2023-11-19T03:28:00;97967.72;;;3.23;54.96
40285;BME280;25997;50.214;19.354;2023-11-19T03:31:06;97971.09;;;3.22;54.83
40285;BME280;25997;50.214;19.354;2023-11-19T03:34:10;97964.94;;;3.20;55.11
40285;BME280;25997;50.214;19.354;2023-11-19T03:37:12;97969.34;;;3.21;54.99
40285;BME280;25997;50.214;19.354;2023-11-19T03:40:18;97962.34;;;3.20;54.84
40285;BME280;25997;50.214;19.354;2023-11-19T03:43:21;97952.81;;;3.19;55.17
40285;BME280;25997;50.214;19.354;2023-11-19T03:46:25;97944.38;;;3.23;55.31
40285;BME280;25997;50.214;19.354;2023-11-19T03:49:28;97944.69;;;3.29;55.07
40285;BME280;25997;50.214;19.354;2023-11-19T03:52:30;97939.41;;;3.28;54.86
40285;BME280;25997;50.214;19.354;2023-11-19T03:55:33;97926.44;;;3.12;54.70
40285;BME280;25997;50.214;19.354;2023-11-19T03:58:35;97917.13;;;2.99;54.89
40285;BME280;25997;50.214;19.354;2023-11-19T04:01:40;97913.66;;;2.99;55.26
40285;BME280;25997;50.214;19.354;2023-11-19T04:04:43;97902.06;;;2.92;54.80
40285;BME280;25997;50.214;19.354;2023-11-19T04:07:45;97894.66;;;2.84;54.71
40285;BME280;25997;50.214;19.354;2023-11-19T04:10:48;97892.47;;;2.75;54.83
40285;BME280;25997;50.214;19.354;2023-11-19T04:13:51;97879.66;;;2.62;54.90
40285;BME280;25997;50.214;19.354;2023-11-19T04:16:55;97875.59;;;2.51;54.90
40285;BME280;25997;50.214;19.354;2023-11-19T04:19:57;97877.44;;;2.37;55.21
40285;BME280;25997;50.214;19.354;2023-11-19T04:23:00;97886.41;;;2.28;55.00
40285;BME280;25997;50.214;19.354;2023-11-19T04:26:03;97890.34;;;2.21;55.21
40285;BME280;25997;50.214;19.354;2023-11-19T04:29:06;97886.59;;;2.16;55.30
40285;BME280;25997;50.214;19.354;2023-11-19T04:32:11;97875.09;;;2.11;55.24
40285;BME280;25997;50.214;19.354;2023-11-19T04:35:13;97857.59;;;2.07;55.22
40285;BME280;25997;50.214;19.354;2023-11-19T04:38:16;97863.25;;;2.00;55.15
40285;BME280;25997;50.214;19.354;2023-11-19T04:41:18;97855.06;;;1.92;55.48
40285;BME280;25997;50.214;19.354;2023-11-19T04:44:21;97849.44;;;1.85;55.34
40285;BME280;25997;50.214;19.354;2023-11-19T04:47:25;97851.63;;;1.77;55.76
40285;BME280;25997;50.214;19.354;2023-11-19T04:50:27;97852.09;;;1.70;55.80
40285;BME280;25997;50.214;19.354;2023-11-19T04:53:30;97859.50;;;1.64;56.12
40285;BME280;25997;50.214;19.354;2023-11-19T04:56:33;97847.44;;;1.65;56.16
40285;BME280;25997;50.214;19.354;2023-11-19T04:59:36;97849.03;;;1.63;56.02
40285;BME280;25997;50.214;19.354;2023-11-19T05:02:40;97853.16;;;1.59;56.21
40285;BME280;25997;50.214;19.354;2023-11-19T05:05:42;97860.81;;;1.58;56.19
40285;BME280;25997;50.214;19.354;2023-11-19T05:08:45;97842.56;;;1.55;56.24
40285;BME280;25997;50.214;19.354;2023-11-19T05:11:48;97847.09;;;1.59;56.25
40285;BME280;25997;50.214;19.354;2023-11-19T05:14:50;97825.50;;;1.58;56.26
40285;BME280;25997;50.214;19.354;2023-11-19T05:17:54;97835.22;;;1.62;56.32
40285;BME280;25997;50.214;19.354;2023-11-19T05:20:57;97837.78;;;1.62;56.17
40285;BME280;25997;50.214;19.354;2023-11-19T05:23:59;97854.22;;;1.63;56.45
40285;BME280;25997;50.214;19.354;2023-11-19T05:27:02;97841.53;;;1.67;56.50
40285;BME280;25997;50.214;19.354;2023-11-19T05:30:06;97826.34;;;1.73;56.36
40285;BME280;25997;50.214;19.354;2023-11-19T05:33:11;97819.69;;;1.77;56.55
40285;BME280;25997;50.214;19.354;2023-11-19T05:36:13;97805.91;;;1.78;56.37
40285;BME280;25997;50.214;19.354;2023-11-19T05:39:16;97782.63;;;1.78;56.27
40285;BME280;25997;50.214;19.354;2023-11-19T05:42:19;97777.19;;;1.73;56.41
40285;BME280;25997;50.214;19.354;2023-11-19T05:45:22;97771.88;;;1.70;56.52
40285;BME280;25997;50.214;19.354;2023-11-19T05:48:26;97767.59;;;1.71;56.53
40285;BME280;25997;50.214;19.354;2023-11-19T05:51:29;97755.00;;;1.62;56.17
40285;BME280;25997;50.214;19.354;2023-11-19T05:54:32;97769.16;;;1.53;56.72
40285;BME280;25997;50.214;19.354;2023-11-19T05:57:39;97775.22;;;1.53;56.86
40285;BME280;25997;50.214;19.354;2023-11-19T06:00:42;97772.72;;;1.55;56.87
40285;BME280;25997;50.214;19.354;2023-11-19T06:03:46;97777.06;;;1.56;56.61
40285;BME280;25997;50.214;19.354;2023-11-19T06:06:51;97779.31;;;1.50;56.77
40285;BME280;25997;50.214;19.354;2023-11-19T06:09:53;97770.66;;;1.49;57.00
40285;BME280;25997;50.214;19.354;2023-11-19T06:12:56;97777.44;;;1.47;57.21
40285;BME280;25997;50.214;19.354;2023-11-19T06:16:00;97779.13;;;1.47;57.31
40285;BME280;25997;50.214;19.354;2023-11-19T06:19:05;97777.81;;;1.53;57.53
40285;BME280;25997;50.214;19.354;2023-11-19T06:22:07;97782.41;;;1.59;57.69
40285;BME280;25997;50.214;19.354;2023-11-19T06:25:10;97778.22;;;1.61;57.76
40285;BME280;25997;50.214;19.354;2023-11-19T06:28:15;97776.06;;;1.68;57.60
40285;BME280;25997;50.214;19.354;2023-11-19T06:31:18;97770.06;;;1.69;57.69
40285;BME280;25997;50.214;19.354;2023-11-19T06:34:22;97771.78;;;1.69;57.76
40285;BME280;25997;50.214;19.354;2023-11-19T06:37:24;97766.69;;;1.70;57.57
40285;BME280;25997;50.214;19.354;2023-11-19T06:40:28;97746.31;;;1.76;57.68
40285;BME280;25997;50.214;19.354;2023-11-19T06:43:31;97745.13;;;1.86;57.28
40285;BME280;25997;50.214;19.354;2023-11-19T06:46:34;97744.06;;;1.82;57.37
40285;BME280;25997;50.214;19.354;2023-11-19T06:49:38;97746.28;;;1.91;57.32
40285;BME280;25997;50.214;19.354;2023-11-19T06:52:41;97725.97;;;1.98;57.51
40285;BME280;25997;50.214;19.354;2023-11-19T06:55:43;97728.59;;;2.15;57.32
40285;BME280;25997;50.214;19.354;2023-11-19T06:58:46;97728.97;;;2.22;57.20
40285;BME280;25997;50.214;19.354;2023-11-19T07:01:49;97731.31;;;2.34;57.14
40285;BME280;25997;50.214;19.354;2023-11-19T07:04:54;97721.31;;;2.40;57.06
40285;BME280;25997;50.214;19.354;2023-11-19T07:07:56;97714.41;;;2.40;57.13
40285;BME280;25997;50.214;19.354;2023-11-19T07:10:59;97710.13;;;2.41;57.15
40285;BME280;25997;50.214;19.354;2023-11-19T07:14:02;97705.84;;;2.41;57.33
40285;BME280;25997;50.214;19.354;2023-11-19T07:17:04;97713.84;;;2.46;57.15
40285;BME280;25997;50.214;19.354;2023-11-19T07:20:10;97722.66;;;2.49;57.23
40285;BME280;25997;50.214;19.354;2023-11-19T07:23:14;97730.59;;;2.52;57.32
40285;BME280;25997;50.214;19.354;2023-11-19T07:26:17;97715.22;;;2.55;57.05
40285;BME280;25997;50.214;19.354;2023-11-19T07:29:20;97718.09;;;2.61;57.31
40285;BME280;25997;50.214;19.354;2023-11-19T07:32:22;97701.91;;;2.65;57.27
40285;BME280;25997;50.214;19.354;2023-11-19T07:35:26;97695.25;;;2.70;57.07
40285;BME280;25997;50.214;19.354;2023-11-19T07:38:31;97691.84;;;2.71;56.81
40285;BME280;25997;50.214;19.354;2023-11-19T07:41:34;97693.03;;;2.78;57.05
40285;BME280;25997;50.214;19.354;2023-11-19T07:44:40;97683.78;;;2.83;56.97
40285;BME280;25997;50.214;19.354;2023-11-19T07:47:44;97672.53;;;2.83;56.91
40285;BME280;25997;50.214;19.354;2023-11-19T07:50:48;97679.22;;;2.78;56.97
40285;BME280;25997;50.214;19.354;2023-11-19T07:53:51;97684.69;;;2.84;56.99
40285;BME280;25997;50.214;19.354;2023-11-19T07:56:53;97679.09;;;2.92;56.96
40285;BME280;25997;50.214;19.354;2023-11-19T07:59:56;97662.81;;;2.95;56.91
40285;BME280;25997;50.214;19.354;2023-11-19T08:02:59;97653.19;;;2.92;56.57
40285;BME280;25997;50.214;19.354;2023-11-19T08:06:03;97635.75;;;2.90;56.71
40285;BME280;25997;50.214;19.354;2023-11-19T08:09:06;97634.97;;;2.91;56.85
40285;BME280;25997;50.214;19.354;2023-11-19T08:12:14;97637.19;;;3.01;56.95
40285;BME280;25997;50.214;19.354;2023-11-19T08:15:18;97632.06;;;3.20;57.02
40285;BME280;25997;50.214;19.354;2023-11-19T08:18:21;97632.63;;;3.32;56.75
40285;BME280;25997;50.214;19.354;2023-11-19T08:21:25;97627.41;;;3.50;56.47
40285;BME280;25997;50.214;19.354;2023-11-19T08:24:28;97628.47;;;3.53;56.31
40285;BME280;25997;50.214;19.354;2023-11-19T08:27:30;97622.72;;;3.60;56.10
40285;BME280;25997;50.214;19.354;2023-11-19T08:30:33;97618.34;;;3.59;56.27
40285;BME280;25997;50.214;19.354;2023-11-19T08:33:36;97604.91;;;3.49;56.07
40285;BME280;25997;50.214;19.354;2023-11-19T08:36:40;97612.69;;;3.49;55.93
40285;BME280;25997;50.214;19.354;2023-11-19T08:39:42;97610.88;;;3.47;56.18
40285;BME280;25997;50.214;19.354;2023-11-19T08:42:45;97616.44;;;3.55;56.36
40285;BME280;25997;50.214;19.354;2023-11-19T08:45:48;97606.53;;;3.66;55.96
40285;BME280;25997;50.214;19.354;2023-11-19T08:48:50;97616.03;;;3.65;55.86
40285;BME280;25997;50.214;19.354;2023-11-19T08:51:54;97616.94;;;3.66;56.11
40285;BME280;25997;50.214;19.354;2023-11-19T08:54:56;97612.75;;;3.69;55.71
40285;BME280;25997;50.214;19.354;2023-11-19T08:57:59;97609.63;;;3.76;55.83
40285;BME280;25997;50.214;19.354;2023-11-19T09:01:02;97595.28;;;3.84;55.92
40285;BME280;25997;50.214;19.354;2023-11-19T09:04:05;97588.03;;;3.77;55.54
40285;BME280;25997;50.214;19.354;2023-11-19T09:07:09;97586.69;;;3.66;55.61
40285;BME280;25997;50.214;19.354;2023-11-19T09:10:12;97592.63;;;3.64;55.75
40285;BME280;25997;50.214;19.354;2023-11-19T09:13:14;97578.88;;;3.66;55.90
40285;BME280;25997;50.214;19.354;2023-11-19T09:16:17;97574.84;;;3.73;55.74
40285;BME280;25997;50.214;19.354;2023-11-19T09:19:20;97558.66;;;3.78;55.66
40285;BME280;25997;50.214;19.354;2023-11-19T09:22:24;97529.41;;;3.82;55.76
40285;BME280;25997;50.214;19.354;2023-11-19T09:25:26;97522.66;;;3.86;55.58
40285;BME280;25997;50.214;19.354;2023-11-19T09:28:29;97537.69;;;3.93;55.83
40285;BME280;25997;50.214;19.354;2023-11-19T09:31:31;97537.88;;;3.97;55.41
40285;BME280;25997;50.214;19.354;2023-11-19T09:34:34;97532.88;;;4.02;55.27
40285;BME280;25997;50.214;19.354;2023-11-19T09:37:38;97541.94;;;4.11;55.39
40285;BME280;25997;50.214;19.354;2023-11-19T09:40:41;97540.88;;;4.06;54.98
40285;BME280;25997;50.214;19.354;2023-11-19T09:43:44;97534.59;;;4.01;55.15
40285;BME280;25997;50.214;19.354;2023-11-19T09:46:47;97510.56;;;4.07;55.42
40285;BME280;25997;50.214;19.354;2023-11-19T09:49:50;97508.63;;;4.01;55.28
40285;BME280;25997;50.214;19.354;2023-11-19T09:52:55;97510.06;;;4.15;55.29
40285;BME280;25997;50.214;19.354;2023-11-19T09:56:00;97501.31;;;4.13;54.85
40285;BME280;25997;50.214;19.354;2023-11-19T09:59:05;97489.47;;;4.20;55.35
40285;BME280;25997;50.214;19.354;2023-11-19T10:02:07;97479.84;;;4.38;55.22
40285;BME280;25997;50.214;19.354;2023-11-19T10:05:10;97470.72;;;4.48;54.83
40285;BME280;25997;50.214;19.354;2023-11-19T10:08:15;97459.78;;;4.56;54.99
40285;BME280;25997;50.214;19.354;2023-11-19T10:11:18;97459.66;;;4.74;54.77
40285;BME280;25997;50.214;19.354;2023-11-19T10:14:23;97445.94;;;4.78;54.47
40285;BME280;25997;50.214;19.354;2023-11-19T10:17:27;97436.19;;;4.95;54.49
40285;BME280;25997;50.214;19.354;2023-11-19T10:20:35;97425.75;;;5.17;54.32
40285;BME280;25997;50.214;19.354;2023-11-19T10:23:50;97433.22;;;5.31;53.19
40285;BME280;25997;50.214;19.354;2023-11-19T10:26:53;97412.47;;;5.33;53.54
40285;BME280;25997;50.214;19.354;2023-11-19T10:29:59;97420.13;;;5.28;52.95
40285;BME280;25997;50.214;19.354;2023-11-19T10:33:06;97409.75;;;5.30;53.09
40285;BME280;25997;50.214;19.354;2023-11-19T10:36:09;97403.91;;;5.35;53.29
40285;BME280;25997;50.214;19.354;2023-11-19T10:39:14;97404.00;;;5.38;52.89
40285;BME280;25997;50.214;19.354;2023-11-19T10:42:16;97399.69;;;5.39;52.79
40285;BME280;25997;50.214;19.354;2023-11-19T10:45:23;97397.53;;;5.27;52.33
40285;BME280;25997;50.214;19.354;2023-11-19T10:48:25;97386.22;;;5.27;52.90
40285;BME280;25997;50.214;19.354;2023-11-19T10:51:29;97375.13;;;5.31;53.01
40285;BME280;25997;50.214;19.354;2023-11-19T10:54:34;97370.88;;;5.34;53.06
40285;BME280;25997;50.214;19.354;2023-11-19T10:57:38;97369.38;;;5.41;53.01
40285;BME280;25997;50.214;19.354;2023-11-19T11:00:44;97357.25;;;5.41;52.88
40285;BME280;25997;50.214;19.354;2023-11-19T11:03:47;97348.34;;;5.35;52.54
40285;BME280;25997;50.214;19.354;2023-11-19T11:06:54;97333.84;;;5.41;52.70
40285;BME280;25997;50.214;19.354;2023-11-19T11:09:59;97320.50;;;5.32;52.14
40285;BME280;25997;50.214;19.354;2023-11-19T11:13:03;97325.66;;;5.31;51.98
40285;BME280;25997;50.214;19.354;2023-11-19T11:16:06;97336.78;;;5.27;51.86
40285;BME280;25997;50.214;19.354;2023-11-19T11:19:10;97329.72;;;4.99;51.23
40285;BME280;25997;50.214;19.354;2023-11-19T11:22:14;97327.63;;;4.67;51.71
40285;BME280;25997;50.214;19.354;2023-11-19T11:25:27;97330.16;;;4.42;52.16
40285;BME280;25997;50.214;19.354;2023-11-19T11:28:37;97322.03;;;4.34;52.47
40285;BME280;25997;50.214;19.354;2023-11-19T11:31:50;97321.50;;;4.20;52.34
40285;BME280;25997;50.214;19.354;2023-11-19T11:35:10;97323.09;;;3.95;53.12
40285;BME280;25997;50.214;19.354;2023-11-19T11:38:21;97309.56;;;3.81;53.47
40285;BME280;25997;50.214;19.354;2023-11-19T11:41:26;97306.84;;;3.78;54.24
40285;BME280;25997;50.214;19.354;2023-11-19T11:44:59;97303.34;;;3.78;54.17
40285;BME280;25997;50.214;19.354;2023-11-19T11:48:09;97298.06;;;3.75;54.46
40285;BME280;25997;50.214;19.354;2023-11-19T11:51:12;97278.66;;;3.67;55.59
40285;BME280;25997;50.214;19.354;2023-11-19T11:54:26;97278.00;;;3.50;55.17
40285;BME280;25997;50.214;19.354;2023-11-19T11:57:36;97269.91;;;3.42;55.05
40285;BME280;25997;50.214;19.354;2023-11-19T12:00:40;97265.31;;;3.35;55.15
40285;BME280;25997;50.214;19.354;2023-11-19T12:03:42;97261.34;;;3.24;55.35
40285;BME280;25997;50.214;19.354;2023-11-19T12:07:03;97265.34;;;3.16;55.49
40285;BME280;25997;50.214;19.354;2023-11-19T12:10:07;97254.53;;;3.06;55.38
40285;BME280;25997;50.214;19.354;2023-11-19T12:13:14;97260.28;;;2.99;55.56
40285;BME280;25997;50.214;19.354;2023-11-19T12:16:19;97242.78;;;2.93;55.64
40285;BME280;25997;50.214;19.354;2023-11-19T12:19:22;97231.56;;;2.94;55.49
40285;BME280;25997;50.214;19.354;2023-11-19T12:22:25;97228.72;;;2.88;55.57
40285;BME280;25997;50.214;19.354;2023-11-19T12:25:34;97227.88;;;2.89;55.85
40285;BME280;25997;50.214;19.354;2023-11-19T12:28:38;97222.66;;;2.88;55.92
40285;BME280;25997;50.214;19.354;2023-11-19T12:31:44;97223.13;;;2.79;55.96
40285;BME280;25997;50.214;19.354;2023-11-19T12:34:47;97220.38;;;2.76;56.05
40285;BME280;25997;50.214;19.354;2023-11-19T12:37:50;97219.50;;;2.75;56.23
40285;BME280;25997;50.214;19.354;2023-11-19T12:41:03;97210.84;;;2.75;56.32
40285;BME280;25997;50.214;19.354;2023-11-19T12:44:11;97204.63;;;2.71;56.47
40285;BME280;25997;50.214;19.354;2023-11-19T12:47:13;97192.53;;;2.70;56.76
40285;BME280;25997;50.214;19.354;2023-11-19T12:50:16;97190.88;;;2.72;57.07
40285;BME280;25997;50.214;19.354;2023-11-19T12:53:20;97175.38;;;2.74;57.41
40285;BME280;25997;50.214;19.354;2023-11-19T12:56:22;97187.25;;;2.88;57.50
40285;BME280;25997;50.214;19.354;2023-11-19T12:59:26;97177.28;;;2.97;57.48
40285;BME280;25997;50.214;19.354;2023-11-19T13:02:44;97168.94;;;3.04;57.50
40285;BME280;25997;50.214;19.354;2023-11-19T13:05:47;97174.09;;;3.04;57.77
40285;BME280;25997;50.214;19.354;2023-11-19T13:08:50;97169.13;;;3.09;57.73
40285;BME280;25997;50.214;19.354;2023-11-19T13:11:56;97156.25;;;3.12;57.98
40285;BME280;25997;50.214;19.354;2023-11-19T13:15:01;97160.06;;;3.20;58.05
40285;BME280;25997;50.214;19.354;2023-11-19T13:18:04;97161.09;;;3.25;58.05
40285;BME280;25997;50.214;19.354;2023-11-19T13:21:07;97167.22;;;3.27;58.01
40285;BME280;25997;50.214;19.354;2023-11-19T13:24:10;97162.97;;;3.29;58.07
40285;BME280;25997;50.214;19.354;2023-11-19T13:27:13;97158.06;;;3.35;58.01
40285;BME280;25997;50.214;19.354;2023-11-19T13:30:17;97165.72;;;3.32;57.92
40285;BME280;25997;50.214;19.354;2023-11-19T13:33:20;97158.78;;;3.31;58.02
40285;BME280;25997;50.214;19.354;2023-11-19T13:36:22;97155.38;;;3.33;57.81
40285;BME280;25997;50.214;19.354;2023-11-19T13:39:26;97159.94;;;3.39;57.98
40285;BME280;25997;50.214;19.354;2023-11-19T13:42:28;97158.81;;;3.32;58.10
40285;BME280;25997;50.214;19.354;2023-11-19T13:45:32;97153.75;;;3.35;58.24
40285;BME280;25997;50.214;19.354;2023-11-19T13:48:35;97140.78;;;3.35;58.29
40285;BME280;25997;50.214;19.354;2023-11-19T13:51:38;97137.59;;;3.42;58.08
40285;BME280;25997;50.214;19.354;2023-11-19T13:54:40;97136.72;;;3.42;58.43
40285;BME280;25997;50.214;19.354;2023-11-19T13:57:43;97129.03;;;3.45;58.45
40285;BME280;25997;50.214;19.354;2023-11-19T14:00:47;97131.00;;;3.51;58.48
40285;BME280;25997;50.214;19.354;2023-11-19T14:03:50;97124.94;;;3.50;58.66
40285;BME280;25997;50.214;19.354;2023-11-19T14:06:52;97125.16;;;3.56;58.64
40285;BME280;25997;50.214;19.354;2023-11-19T14:09:56;97123.66;;;3.63;58.57
40285;BME280;25997;50.214;19.354;2023-11-19T14:12:59;97121.25;;;3.67;58.69
40285;BME280;25997;50.214;19.354;2023-11-19T14:16:03;97116.91;;;3.66;58.63
40285;BME280;25997;50.214;19.354;2023-11-19T14:19:07;97111.63;;;3.65;58.83
40285;BME280;25997;50.214;19.354;2023-11-19T14:22:10;97116.91;;;3.66;58.89
40285;BME280;25997;50.214;19.354;2023-11-19T14:25:12;97114.19;;;3.63;58.96
40285;BME280;25997;50.214;19.354;2023-11-19T14:28:15;97107.25;;;3.62;59.04
40285;BME280;25997;50.214;19.354;2023-11-19T14:31:19;97107.13;;;3.59;59.39
40285;BME280;25997;50.214;19.354;2023-11-19T14:34:22;97096.22;;;3.45;59.97
40285;BME280;25997;50.214;19.354;2023-11-19T14:37:25;97104.56;;;3.38;60.29
40285;BME280;25997;50.214;19.354;2023-11-19T14:40:28;97108.66;;;3.32;60.63
40285;BME280;25997;50.214;19.354;2023-11-19T14:43:31;97096.00;;;3.39;60.81
40285;BME280;25997;50.214;19.354;2023-11-19T14:46:35;97096.94;;;3.41;60.61
40285;BME280;25997;50.214;19.354;2023-11-19T14:49:37;97103.00;;;3.42;60.77
40285;BME280;25997;50.214;19.354;2023-11-19T14:52:40;97100.31;;;3.40;60.80
40285;BME280;25997;50.214;19.354;2023-11-19T14:55:42;97097.09;;;3.46;60.64
40285;BME280;25997;50.214;19.354;2023-11-19T14:58:45;97102.22;;;3.44;61.13
40285;BME280;25997;50.214;19.354;2023-11-19T15:01:49;97102.28;;;3.46;61.50
40285;BME280;25997;50.214;19.354;2023-11-19T15:04:51;97093.31;;;3.38;61.98
40285;BME280;25997;50.214;19.354;2023-11-19T15:07:54;97085.88;;;3.47;61.83
40285;BME280;25997;50.214;19.354;2023-11-19T15:10:56;97086.56;;;3.41;62.79
40285;BME280;25997;50.214;19.354;2023-11-19T15:13:59;97086.59;;;3.43;62.58
40285;BME280;25997;50.214;19.354;2023-11-19T15:17:03;97088.78;;;3.32;63.33
40285;BME280;25997;50.214;19.354;2023-11-19T15:20:08;97084.41;;;3.54;62.82
40285;BME280;25997;50.214;19.354;2023-11-19T15:23:11;97084.34;;;3.52;62.78
40285;BME280;25997;50.214;19.354;2023-11-19T15:26:14;97087.06;;;3.55;62.79
40285;BME280;25997;50.214;19.354;2023-11-19T15:29:16;97087.28;;;3.61;62.72
40285;BME280;25997;50.214;19.354;2023-11-19T15:32:20;97086.47;;;3.40;63.71
40285;BME280;25997;50.214;19.354;2023-11-19T15:35:23;97080.09;;;3.54;63.33
40285;BME280;25997;50.214;19.354;2023-11-19T15:38:26;97073.25;;;3.56;63.59
40285;BME280;25997;50.214;19.354;2023-11-19T15:41:29;97071.38;;;3.52;64.19
40285;BME280;25997;50.214;19.354;2023-11-19T15:44:32;97073.56;;;3.64;63.92
40285;BME280;25997;50.214;19.354;2023-11-19T15:47:36;97067.16;;;3.56;64.84
40285;BME280;25997;50.214;19.354;2023-11-19T15:50:39;97069.47;;;3.47;65.81
40285;BME280;25997;50.214;19.354;2023-11-19T15:53:42;97068.75;;;3.74;65.12
40285;BME280;25997;50.214;19.354;2023-11-19T15:56:45;97061.69;;;3.70;65.70
40285;BME280;25997;50.214;19.354;2023-11-19T15:59:48;97070.53;;;3.75;66.08
40285;BME280;25997;50.214;19.354;2023-11-19T16:02:53;97072.22;;;3.98;65.73
40285;BME280;25997;50.214;19.354;2023-11-19T16:05:57;97074.53;;;4.14;65.58
40285;BME280;25997;50.214;19.354;2023-11-19T16:09:00;97065.06;;;4.16;65.75
40285;BME280;25997;50.214;19.354;2023-11-19T16:12:03;97071.97;;;4.16;66.21
40285;BME280;25997;50.214;19.354;2023-11-19T16:15:06;97066.22;;;4.25;66.25